sensor_id;sensor_type;location;lat;lon;timestamp;temperature;humidity
20487;DHT22;10402;49.012;8.370;2023-02-01T00:01:49;6.70;91.40
20487;DHT22;10402;49.012;8.370;2023-02-01T00:04:15;6.70;91.50
20487;DHT22;10402;49.012;8.370;2023-02-01T00:06:41;6.70;91.60
20487;DHT22;10402;49.012;8.370;2023-02-01T00:09:06;6.70;91.50
20487;DHT22;10402;49.012;8.370;2023-02-01T00:11:33;6.70;91.40
20487;DHT22;10402;49.012;8.370;2023-02-01T00:13:58;6.80;91.40
20487;DHT22;10402;49.012;8.370;2023-02-01T00:16:26;6.70;91.30
20487;DHT22;10402;49.012;8.370;2023-02-01T00:18:58;6.70;91.30
20487;DHT22;10402;49.012;8.370;2023-02-01T00:21:24;6.70;91.40
20487;DHT22;10402;49.012;8.370;2023-02-01T00:23:49;6.70;91.40
20487;DHT22;10402;49.012;8.370;2023-02-01T00:26:18;6.70;91.40
20487;DHT22;10402;49.012;8.370;2023-02-01T00:28:45;6.70;91.40
20487;DHT22;10402;49.012;8.370;2023-02-01T00:31:10;6.70;91.60
20487;DHT22;10402;49.012;8.370;2023-02-01T00:33:36;6.70;91.50
20487;DHT22;10402;49.012;8.370;2023-02-01T00:36:06;6.70;91.50
20487;DHT22;10402;49.012;8.370;2023-02-01T00:38:34;6.80;91.50
20487;DHT22;10402;49.012;8.370;2023-02-01T00:41:06;6.80;91.50
20487;DHT22;10402;49.012;8.370;2023-02-01T00:43:33;6.80;91.30
20487;DHT22;10402;49.012;8.370;2023-02-01T00:45:59;6.80;91.30
20487;DHT22;10402;49.012;8.370;2023-02-01T00:48:25;6.80;91.30
20487;DHT22;10402;49.012;8.370;2023-02-01T00:50:51;6.70;91.30
20487;DHT22;10402;49.012;8.370;2023-02-01T00:53:17;6.80;91.40
20487;DHT22;10402;49.012;8.370;2023-02-01T00:55:46;6.80;91.30
20487;DHT22;10402;49.012;8.370;2023-02-01T00:58:12;6.80;91.40
20487;DHT22;10402;49.012;8.370;2023-02-01T01:00:38;6.80;91.30
20487;DHT22;10402;49.012;8.370;2023-02-01T01:03:04;6.80;91.30
20487;DHT22;10402;49.012;8.370;2023-02-01T01:05:46;6.80;91.30
20487;DHT22;10402;49.012;8.370;2023-02-01T01:08:13;6.80;91.30
20487;DHT22;10402;49.012;8.370;2023-02-01T01:10:38;6.80;91.40
20487;DHT22;10402;49.012;8.370;2023-02-01T01:13:04;6.80;91.30
20487;DHT22;10402;49.012;8.370;2023-02-01T01:15:30;6.70;91.40
20487;DHT22;10402;49.012;8.370;2023-02-01T01:17:56;6.80;91.60
20487;DHT22;10402;49.012;8.370;2023-02-01T01:20:21;6.70;91.50
20487;DHT22;10402;49.012;8.370;2023-02-01T01:22:48;6.70;91.60
20487;DHT22;10402;49.012;8.370;2023-02-01T01:25:14;6.70;91.60
20487;DHT22;10402;49.012;8.370;2023-02-01T01:27:39;6.70;91.60
20487;DHT22;10402;49.012;8.370;2023-02-01T01:30:06;6.70;91.60
20487;DHT22;10402;49.012;8.370;2023-02-01T01:32:32;6.70;91.60
20487;DHT22;10402;49.012;8.370;2023-02-01T01:34:58;6.70;91.60
20487;DHT22;10402;49.012;8.370;2023-02-01T01:37:23;6.80;91.60
20487;DHT22;10402;49.012;8.370;2023-02-01T01:39:49;6.80;91.60
20487;DHT22;10402;49.012;8.370;2023-02-01T01:42:14;6.80;91.60
20487;DHT22;10402;49.012;8.370;2023-02-01T01:47:26;6.90;91.50
20487;DHT22;10402;49.012;8.370;2023-02-01T01:49:52;6.90;91.40
20487;DHT22;10402;49.012;8.370;2023-02-01T01:52:18;6.80;91.40
20487;DHT22;10402;49.012;8.370;2023-02-01T01:54:50;6.80;91.40
20487;DHT22;10402;49.012;8.370;2023-02-01T01:57:25;6.80;91.50
20487;DHT22;10402;49.012;8.370;2023-02-01T01:59:59;6.80;91.40
20487;DHT22;10402;49.012;8.370;2023-02-01T02:02:25;6.80;91.50
20487;DHT22;10402;49.012;8.370;2023-02-01T02:04:51;6.80;91.40
20487;DHT22;10402;49.012;8.370;2023-02-01T02:07:30;6.90;91.40
20487;DHT22;10402;49.012;8.370;2023-02-01T02:09:57;6.90;91.40
20487;DHT22;10402;49.012;8.370;2023-02-01T02:12:23;6.80;91.40
20487;DHT22;10402;49.012;8.370;2023-02-01T02:14:49;6.80;91.40
20487;DHT22;10402;49.012;8.370;2023-02-01T02:17:33;6.80;91.40
20487;DHT22;10402;49.012;8.370;2023-02-01T02:23:25;6.80;91.40
20487;DHT22;10402;49.012;8.370;2023-02-01T02:28:42;6.80;91.40
20487;DHT22;10402;49.012;8.370;2023-02-01T02:34:34;6.90;91.40
20487;DHT22;10402;49.012;8.370;2023-02-01T02:37:33;6.80;91.40
20487;DHT22;10402;49.012;8.370;2023-02-01T02:43:13;6.80;91.40
20487;DHT22;10402;49.012;8.370;2023-02-01T02:46:24;6.80;91.40
20487;DHT22;10402;49.012;8.370;2023-02-01T02:49:19;6.80;91.50
20487;DHT22;10402;49.012;8.370;2023-02-01T02:51:47;6.80;91.50
20487;DHT22;10402;49.012;8.370;2023-02-01T02:54:36;6.80;91.50
20487;DHT22;10402;49.012;8.370;2023-02-01T02:57:17;6.80;91.50
20487;DHT22;10402;49.012;8.370;2023-02-01T03:00:05;6.80;91.40
20487;DHT22;10402;49.012;8.370;2023-02-01T03:02:51;6.90;91.50
20487;DHT22;10402;49.012;8.370;2023-02-01T03:05:39;6.80;91.40
20487;DHT22;10402;49.012;8.370;2023-02-01T03:10:57;6.90;91.60
20487;DHT22;10402;49.012;8.370;2023-02-01T03:16:21;6.90;91.70
20487;DHT22;10402;49.012;8.370;2023-02-01T03:21:38;6.80;91.60
20487;DHT22;10402;49.012;8.370;2023-02-01T03:24:10;6.80;91.60
20487;DHT22;10402;49.012;8.370;2023-02-01T03:26:40;6.80;91.60
20487;DHT22;10402;49.012;8.370;2023-02-01T03:29:23;6.80;91.60
20487;DHT22;10402;49.012;8.370;2023-02-01T03:31:50;6.80;91.70
20487;DHT22;10402;49.012;8.370;2023-02-01T03:34:16;6.80;91.60
20487;DHT22;10402;49.012;8.370;2023-02-01T03:36:48;6.80;91.60
20487;DHT22;10402;49.012;8.370;2023-02-01T03:39:31;6.90;91.70
20487;DHT22;10402;49.012;8.370;2023-02-01T03:42:00;6.90;91.70
20487;DHT22;10402;49.012;8.370;2023-02-01T03:44:36;6.90;91.70
20487;DHT22;10402;49.012;8.370;2023-02-01T03:47:19;6.90;91.70
20487;DHT22;10402;49.012;8.370;2023-02-01T03:50:05;6.80;91.70
20487;DHT22;10402;49.012;8.370;2023-02-01T03:52:59;6.80;91.60
20487;DHT22;10402;49.012;8.370;2023-02-01T03:55:27;6.80;91.60
20487;DHT22;10402;49.012;8.370;2023-02-01T03:58:15;6.80;91.60
20487;DHT22;10402;49.012;8.370;2023-02-01T04:00:45;6.80;91.60
20487;DHT22;10402;49.012;8.370;2023-02-01T04:03:11;6.90;91.70
20487;DHT22;10402;49.012;8.370;2023-02-01T04:05:37;6.90;91.70
20487;DHT22;10402;49.012;8.370;2023-02-01T04:08:02;6.90;91.70
20487;DHT22;10402;49.012;8.370;2023-02-01T04:10:28;6.90;91.70
20487;DHT22;10402;49.012;8.370;2023-02-01T04:12:53;6.90;91.70
20487;DHT22;10402;49.012;8.370;2023-02-01T04:15:19;6.90;91.70
20487;DHT22;10402;49.012;8.370;2023-02-01T04:17:45;6.90;91.70
20487;DHT22;10402;49.012;8.370;2023-02-01T04:20:10;6.90;91.70
20487;DHT22;10402;49.012;8.370;2023-02-01T04:22:36;6.90;91.70
20487;DHT22;10402;49.012;8.370;2023-02-01T04:25:02;6.80;91.60
20487;DHT22;10402;49.012;8.370;2023-02-01T04:27:27;6.80;91.60
20487;DHT22;10402;49.012;8.370;2023-02-01T04:29:53;6.90;91.70
20487;DHT22;10402;49.012;8.370;2023-02-01T04:32:18;6.90;91.70
20487;DHT22;10402;49.012;8.370;2023-02-01T04:34:45;6.90;91.70
20487;DHT22;10402;49.012;8.370;2023-02-01T04:37:11;6.90;91.70
20487;DHT22;10402;49.012;8.370;2023-02-01T04:39:36;6.80;91.60
20487;DHT22;10402;49.012;8.370;2023-02-01T04:42:02;6.80;91.70
20487;DHT22;10402;49.012;8.370;2023-02-01T04:44:28;6.80;91.80
20487;DHT22;10402;49.012;8.370;2023-02-01T04:46:53;6.80;92.00
20487;DHT22;10402;49.012;8.370;2023-02-01T04:49:19;6.80;92.00
20487;DHT22;10402;49.012;8.370;2023-02-01T04:51:46;6.80;92.10
20487;DHT22;10402;49.012;8.370;2023-02-01T04:54:12;6.80;92.10
20487;DHT22;10402;49.012;8.370;2023-02-01T04:56:38;6.80;92.10
20487;DHT22;10402;49.012;8.370;2023-02-01T04:59:04;6.80;92.20
20487;DHT22;10402;49.012;8.370;2023-02-01T05:01:30;6.80;92.20
20487;DHT22;10402;49.012;8.370;2023-02-01T05:03:56;6.80;92.20
20487;DHT22;10402;49.012;8.370;2023-02-01T05:06:22;6.80;92.20
20487;DHT22;10402;49.012;8.370;2023-02-01T05:08:47;6.80;92.10
20487;DHT22;10402;49.012;8.370;2023-02-01T05:11:13;6.80;92.10
20487;DHT22;10402;49.012;8.370;2023-02-01T05:13:58;6.80;92.20
20487;DHT22;10402;49.012;8.370;2023-02-01T05:16:24;6.80;92.50
20487;DHT22;10402;49.012;8.370;2023-02-01T05:18:50;6.80;92.20
20487;DHT22;10402;49.012;8.370;2023-02-01T05:21:15;6.80;92.20
20487;DHT22;10402;49.012;8.370;2023-02-01T05:23:41;6.80;92.20
20487;DHT22;10402;49.012;8.370;2023-02-01T05:26:25;6.80;92.20
20487;DHT22;10402;49.012;8.370;2023-02-01T05:28:51;6.70;92.60
20487;DHT22;10402;49.012;8.370;2023-02-01T05:31:17;6.80;92.30
20487;DHT22;10402;49.012;8.370;2023-02-01T05:33:42;6.70;92.20
20487;DHT22;10402;49.012;8.370;2023-02-01T05:36:08;6.80;92.30
20487;DHT22;10402;49.012;8.370;2023-02-01T05:38:37;6.80;92.30
20487;DHT22;10402;49.012;8.370;2023-02-01T05:41:02;6.70;92.30
20487;DHT22;10402;49.012;8.370;2023-02-01T05:43:28;6.70;92.30
20487;DHT22;10402;49.012;8.370;2023-02-01T05:45:53;6.70;92.40
20487;DHT22;10402;49.012;8.370;2023-02-01T05:48:19;6.70;92.40
20487;DHT22;10402;49.012;8.370;2023-02-01T05:50:48;6.70;92.40
20487;DHT22;10402;49.012;8.370;2023-02-01T05:53:13;6.80;92.40
20487;DHT22;10402;49.012;8.370;2023-02-01T05:55:39;6.80;92.40
20487;DHT22;10402;49.012;8.370;2023-02-01T05:58:05;6.80;92.40
20487;DHT22;10402;49.012;8.370;2023-02-01T06:00:31;6.80;92.30
20487;DHT22;10402;49.012;8.370;2023-02-01T06:02:57;6.80;92.30
20487;DHT22;10402;49.012;8.370;2023-02-01T06:05:23;6.80;92.20
20487;DHT22;10402;49.012;8.370;2023-02-01T06:07:48;6.80;92.30
20487;DHT22;10402;49.012;8.370;2023-02-01T06:10:16;6.80;92.20
20487;DHT22;10402;49.012;8.370;2023-02-01T06:12:41;6.90;92.20
20487;DHT22;10402;49.012;8.370;2023-02-01T06:15:08;6.90;92.30
20487;DHT22;10402;49.012;8.370;2023-02-01T06:17:33;6.90;92.20
20487;DHT22;10402;49.012;8.370;2023-02-01T06:19:59;6.90;92.20
20487;DHT22;10402;49.012;8.370;2023-02-01T06:22:24;6.90;92.20
20487;DHT22;10402;49.012;8.370;2023-02-01T06:24:50;6.90;92.10
20487;DHT22;10402;49.012;8.370;2023-02-01T06:27:15;6.90;92.10
20487;DHT22;10402;49.012;8.370;2023-02-01T06:29:41;6.90;92.20
20487;DHT22;10402;49.012;8.370;2023-02-01T06:32:07;6.90;92.10
20487;DHT22;10402;49.012;8.370;2023-02-01T06:34:32;6.90;92.10
20487;DHT22;10402;49.012;8.370;2023-02-01T06:36:58;6.90;92.00
20487;DHT22;10402;49.012;8.370;2023-02-01T06:39:23;7.00;92.10
20487;DHT22;10402;49.012;8.370;2023-02-01T06:41:50;6.90;91.90
20487;DHT22;10402;49.012;8.370;2023-02-01T06:44:16;7.00;92.00
20487;DHT22;10402;49.012;8.370;2023-02-01T06:46:42;7.00;92.00
20487;DHT22;10402;49.012;8.370;2023-02-01T06:49:07;7.00;92.00
20487;DHT22;10402;49.012;8.370;2023-02-01T06:51:34;7.00;91.80
20487;DHT22;10402;49.012;8.370;2023-02-01T06:54:00;7.00;92.00
20487;DHT22;10402;49.012;8.370;2023-02-01T06:56:26;7.00;91.80
20487;DHT22;10402;49.012;8.370;2023-02-01T06:58:51;7.00;92.00
20487;DHT22;10402;49.012;8.370;2023-02-01T07:01:17;7.00;91.90
20487;DHT22;10402;49.012;8.370;2023-02-01T07:03:47;7.00;91.90
20487;DHT22;10402;49.012;8.370;2023-02-01T07:06:13;7.10;91.80
20487;DHT22;10402;49.012;8.370;2023-02-01T07:08:38;7.10;91.80
20487;DHT22;10402;49.012;8.370;2023-02-01T07:11:09;7.00;91.90
20487;DHT22;10402;49.012;8.370;2023-02-01T07:13:36;7.00;92.00
20487;DHT22;10402;49.012;8.370;2023-02-01T07:16:03;7.00;92.10
20487;DHT22;10402;49.012;8.370;2023-02-01T07:18:30;7.00;92.20
20487;DHT22;10402;49.012;8.370;2023-02-01T07:20:57;7.00;92.30
20487;DHT22;10402;49.012;8.370;2023-02-01T07:23:23;6.90;92.30
20487;DHT22;10402;49.012;8.370;2023-02-01T07:25:48;6.90;92.40
20487;DHT22;10402;49.012;8.370;2023-02-01T07:28:14;7.00;92.60
20487;DHT22;10402;49.012;8.370;2023-02-01T07:30:40;7.00;92.50
20487;DHT22;10402;49.012;8.370;2023-02-01T07:33:06;7.00;92.50
20487;DHT22;10402;49.012;8.370;2023-02-01T07:35:32;7.00;92.40
20487;DHT22;10402;49.012;8.370;2023-02-01T07:37:58;7.00;92.50
20487;DHT22;10402;49.012;8.370;2023-02-01T07:40:24;6.90;92.40
20487;DHT22;10402;49.012;8.370;2023-02-01T07:42:56;7.00;92.50
20487;DHT22;10402;49.012;8.370;2023-02-01T07:45:22;7.00;92.50
20487;DHT22;10402;49.012;8.370;2023-02-01T07:47:48;7.00;92.60
20487;DHT22;10402;49.012;8.370;2023-02-01T07:50:14;7.00;92.60
20487;DHT22;10402;49.012;8.370;2023-02-01T07:52:40;7.00;92.60
20487;DHT22;10402;49.012;8.370;2023-02-01T07:55:06;7.00;92.60
20487;DHT22;10402;49.012;8.370;2023-02-01T07:57:32;7.00;92.60
20487;DHT22;10402;49.012;8.370;2023-02-01T07:59:57;6.90;92.60
20487;DHT22;10402;49.012;8.370;2023-02-01T08:02:42;7.00;92.60
20487;DHT22;10402;49.012;8.370;2023-02-01T08:05:07;6.90;92.60
20487;DHT22;10402;49.012;8.370;2023-02-01T08:07:33;7.00;92.60
20487;DHT22;10402;49.012;8.370;2023-02-01T08:09:59;7.00;92.60
20487;DHT22;10402;49.012;8.370;2023-02-01T08:12:25;6.90;92.50
20487;DHT22;10402;49.012;8.370;2023-02-01T08:14:52;6.90;92.50
20487;DHT22;10402;49.012;8.370;2023-02-01T08:17:18;7.00;92.50
20487;DHT22;10402;49.012;8.370;2023-02-01T08:19:44;7.00;92.50
20487;DHT22;10402;49.012;8.370;2023-02-01T08:22:09;7.00;92.50
20487;DHT22;10402;49.012;8.370;2023-02-01T08:24:35;7.10;92.50
20487;DHT22;10402;49.012;8.370;2023-02-01T08:27:03;7.10;92.50
20487;DHT22;10402;49.012;8.370;2023-02-01T08:29:29;7.10;92.40
20487;DHT22;10402;49.012;8.370;2023-02-01T08:31:54;7.10;92.40
20487;DHT22;10402;49.012;8.370;2023-02-01T08:34:20;7.10;92.30
20487;DHT22;10402;49.012;8.370;2023-02-01T08:36:45;7.10;92.40
20487;DHT22;10402;49.012;8.370;2023-02-01T08:39:11;7.10;92.40
20487;DHT22;10402;49.012;8.370;2023-02-01T08:41:37;7.20;92.40
20487;DHT22;10402;49.012;8.370;2023-02-01T08:44:02;7.10;92.40
20487;DHT22;10402;49.012;8.370;2023-02-01T08:46:28;7.10;92.40
20487;DHT22;10402;49.012;8.370;2023-02-01T08:48:54;7.10;92.40
20487;DHT22;10402;49.012;8.370;2023-02-01T08:51:21;7.10;92.40
20487;DHT22;10402;49.012;8.370;2023-02-01T08:53:47;7.10;92.40
20487;DHT22;10402;49.012;8.370;2023-02-01T08:56:15;7.10;92.40
20487;DHT22;10402;49.012;8.370;2023-02-01T08:58:41;7.10;92.40
20487;DHT22;10402;49.012;8.370;2023-02-01T09:01:10;7.10;92.40
20487;DHT22;10402;49.012;8.370;2023-02-01T09:03:36;7.20;92.40
20487;DHT22;10402;49.012;8.370;2023-02-01T09:06:03;7.10;92.40
20487;DHT22;10402;49.012;8.370;2023-02-01T09:08:29;7.20;92.40
20487;DHT22;10402;49.012;8.370;2023-02-01T09:10:59;7.20;92.40
20487;DHT22;10402;49.012;8.370;2023-02-01T09:13:25;7.20;92.40
20487;DHT22;10402;49.012;8.370;2023-02-01T09:15:51;7.30;92.40
20487;DHT22;10402;49.012;8.370;2023-02-01T09:18:17;7.30;92.30
20487;DHT22;10402;49.012;8.370;2023-02-01T09:20:42;7.30;92.20
20487;DHT22;10402;49.012;8.370;2023-02-01T09:23:08;7.30;92.20
20487;DHT22;10402;49.012;8.370;2023-02-01T09:25:33;7.30;92.20
20487;DHT22;10402;49.012;8.370;2023-02-01T09:27:59;7.40;92.20
20487;DHT22;10402;49.012;8.370;2023-02-01T09:30:24;7.40;92.20
20487;DHT22;10402;49.012;8.370;2023-02-01T09:32:50;7.50;92.00
20487;DHT22;10402;49.012;8.370;2023-02-01T09:35:17;7.50;91.90
20487;DHT22;10402;49.012;8.370;2023-02-01T09:37:42;7.50;92.30
20487;DHT22;10402;49.012;8.370;2023-02-01T09:40:14;7.50;92.00
20487;DHT22;10402;49.012;8.370;2023-02-01T09:42:59;7.50;92.00
20487;DHT22;10402;49.012;8.370;2023-02-01T09:48:24;7.50;92.00
20487;DHT22;10402;49.012;8.370;2023-02-01T09:50:55;7.50;92.00
20487;DHT22;10402;49.012;8.370;2023-02-01T09:53:27;7.50;91.90
20487;DHT22;10402;49.012;8.370;2023-02-01T09:56:06;7.50;92.00
20487;DHT22;10402;49.012;8.370;2023-02-01T09:58:37;7.50;92.00
20487;DHT22;10402;49.012;8.370;2023-02-01T10:01:09;7.50;92.00
20487;DHT22;10402;49.012;8.370;2023-02-01T10:03:36;7.50;92.00
20487;DHT22;10402;49.012;8.370;2023-02-01T10:12:25;7.50;91.80
20487;DHT22;10402;49.012;8.370;2023-02-01T10:21:04;7.60;92.00
20487;DHT22;10402;49.012;8.370;2023-02-01T10:23:45;7.60;91.60
20487;DHT22;10402;49.012;8.370;2023-02-01T10:26:18;7.60;91.70
20487;DHT22;10402;49.012;8.370;2023-02-01T10:28:48;7.60;91.60
20487;DHT22;10402;49.012;8.370;2023-02-01T10:31:15;7.70;91.50
20487;DHT22;10402;49.012;8.370;2023-02-01T10:33:55;7.70;91.50
20487;DHT22;10402;49.012;8.370;2023-02-01T10:36:25;7.70;91.50
20487;DHT22;10402;49.012;8.370;2023-02-01T10:38:54;7.70;91.40
20487;DHT22;10402;49.012;8.370;2023-02-01T10:41:21;7.70;91.50
20487;DHT22;10402;49.012;8.370;2023-02-01T10:43:54;7.70;91.40
20487;DHT22;10402;49.012;8.370;2023-02-01T10:46:25;7.70;91.30
20487;DHT22;10402;49.012;8.370;2023-02-01T10:48:53;7.80;91.40
20487;DHT22;10402;49.012;8.370;2023-02-01T10:51:21;7.80;91.40
20487;DHT22;10402;49.012;8.370;2023-02-01T10:56:13;7.90;91.30
20487;DHT22;10402;49.012;8.370;2023-02-01T10:58:46;7.90;91.30
20487;DHT22;10402;49.012;8.370;2023-02-01T11:01:36;7.90;91.30
20487;DHT22;10402;49.012;8.370;2023-02-01T11:04:09;7.90;91.20
20487;DHT22;10402;49.012;8.370;2023-02-01T11:06:37;7.90;91.10
20487;DHT22;10402;49.012;8.370;2023-02-01T11:11:32;7.90;91.10
20487;DHT22;10402;49.012;8.370;2023-02-01T11:14:18;7.90;91.10
20487;DHT22;10402;49.012;8.370;2023-02-01T11:16:49;8.00;91.10
20487;DHT22;10402;49.012;8.370;2023-02-01T11:19:16;8.00;91.10
20487;DHT22;10402;49.012;8.370;2023-02-01T11:21:44;8.00;91.10
20487;DHT22;10402;49.012;8.370;2023-02-01T11:26:49;8.00;91.00
20487;DHT22;10402;49.012;8.370;2023-02-01T11:29:17;8.00;91.00
20487;DHT22;10402;49.012;8.370;2023-02-01T11:31:47;8.00;91.00
20487;DHT22;10402;49.012;8.370;2023-02-01T11:34:20;8.00;91.00
20487;DHT22;10402;49.012;8.370;2023-02-01T11:36:47;8.00;90.90
20487;DHT22;10402;49.012;8.370;2023-02-01T11:42:04;8.00;90.90
20487;DHT22;10402;49.012;8.370;2023-02-01T11:44:37;8.00;90.80
20487;DHT22;10402;49.012;8.370;2023-02-01T11:47:29;8.00;90.80
20487;DHT22;10402;49.012;8.370;2023-02-01T11:50:02;8.00;90.80
20487;DHT22;10402;49.012;8.370;2023-02-01T11:52:43;8.00;90.70
20487;DHT22;10402;49.012;8.370;2023-02-01T11:58:11;8.00;90.60
20487;DHT22;10402;49.012;8.370;2023-02-01T12:03:41;8.00;90.60
20487;DHT22;10402;49.012;8.370;2023-02-01T12:14:08;8.10;90.30
20487;DHT22;10402;49.012;8.370;2023-02-01T12:16:47;8.10;90.30
20487;DHT22;10402;49.012;8.370;2023-02-01T12:22:28;8.10;90.20
20487;DHT22;10402;49.012;8.370;2023-02-01T12:25:21;8.20;90.20
20487;DHT22;10402;49.012;8.370;2023-02-01T12:36:16;8.20;90.10
20487;DHT22;10402;49.012;8.370;2023-02-01T12:44:30;8.20;90.00
20487;DHT22;10402;49.012;8.370;2023-02-01T12:47:12;8.20;90.10
20487;DHT22;10402;49.012;8.370;2023-02-01T12:49:46;8.20;90.00
20487;DHT22;10402;49.012;8.370;2023-02-01T12:52:21;8.20;90.00
20487;DHT22;10402;49.012;8.370;2023-02-01T12:54:50;8.20;90.00
20487;DHT22;10402;49.012;8.370;2023-02-01T12:57:27;8.20;90.00
20487;DHT22;10402;49.012;8.370;2023-02-01T13:03:01;8.20;89.80
20487;DHT22;10402;49.012;8.370;2023-02-01T13:05:34;8.20;89.80
20487;DHT22;10402;49.012;8.370;2023-02-01T13:08:12;8.20;89.80
20487;DHT22;10402;49.012;8.370;2023-02-01T13:16:35;8.30;89.90
20487;DHT22;10402;49.012;8.370;2023-02-01T13:22:20;8.30;89.50
20487;DHT22;10402;49.012;8.370;2023-02-01T13:24:57;8.30;89.20
20487;DHT22;10402;49.012;8.370;2023-02-01T13:27:27;8.30;88.90
20487;DHT22;10402;49.012;8.370;2023-02-01T13:29:57;8.30;88.60
20487;DHT22;10402;49.012;8.370;2023-02-01T13:32:55;8.30;88.60
20487;DHT22;10402;49.012;8.370;2023-02-01T13:41:35;8.40;88.10
20487;DHT22;10402;49.012;8.370;2023-02-01T13:44:19;8.40;88.10
20487;DHT22;10402;49.012;8.370;2023-02-01T13:46:47;8.40;87.90
20487;DHT22;10402;49.012;8.370;2023-02-01T13:49:22;8.40;87.70
20487;DHT22;10402;49.012;8.370;2023-02-01T13:51:51;8.40;87.30
20487;DHT22;10402;49.012;8.370;2023-02-01T13:54:33;8.40;87.30
20487;DHT22;10402;49.012;8.370;2023-02-01T13:57:01;8.40;87.30
20487;DHT22;10402;49.012;8.370;2023-02-01T13:59:51;8.40;87.40
20487;DHT22;10402;49.012;8.370;2023-02-01T14:05:12;8.50;87.20
20487;DHT22;10402;49.012;8.370;2023-02-01T14:10:55;8.50;86.60
20487;DHT22;10402;49.012;8.370;2023-02-01T14:13:41;8.60;86.50
20487;DHT22;10402;49.012;8.370;2023-02-01T14:16:14;8.60;86.50
20487;DHT22;10402;49.012;8.370;2023-02-01T14:21:34;8.50;86.30
20487;DHT22;10402;49.012;8.370;2023-02-01T14:34:48;8.60;85.80
20487;DHT22;10402;49.012;8.370;2023-02-01T14:42:38;8.50;85.30
20487;DHT22;10402;49.012;8.370;2023-02-01T14:50:44;8.60;85.10
20487;DHT22;10402;49.012;8.370;2023-02-01T15:04:12;8.80;84.80
20487;DHT22;10402;49.012;8.370;2023-02-01T15:07:03;8.80;84.80
20487;DHT22;10402;49.012;8.370;2023-02-01T15:14:48;8.90;84.40
20487;DHT22;10402;49.012;8.370;2023-02-01T15:17:29;8.90;84.00
20487;DHT22;10402;49.012;8.370;2023-02-01T15:20:23;8.90;84.00
20487;DHT22;10402;49.012;8.370;2023-02-01T15:22:54;8.90;84.20
20487;DHT22;10402;49.012;8.370;2023-02-01T15:25:24;8.90;84.00
20487;DHT22;10402;49.012;8.370;2023-02-01T15:27:50;8.90;84.10
20487;DHT22;10402;49.012;8.370;2023-02-01T15:32:46;8.80;84.00
20487;DHT22;10402;49.012;8.370;2023-02-01T15:35:31;8.90;84.10
20487;DHT22;10402;49.012;8.370;2023-02-01T15:38:33;8.90;84.00
20487;DHT22;10402;49.012;8.370;2023-02-01T15:41:02;8.80;83.80
20487;DHT22;10402;49.012;8.370;2023-02-01T15:46:15;8.80;83.80
20487;DHT22;10402;49.012;8.370;2023-02-01T15:48:51;8.80;83.60
20487;DHT22;10402;49.012;8.370;2023-02-01T15:51:25;8.80;83.60
20487;DHT22;10402;49.012;8.370;2023-02-01T15:53:56;8.80;83.60
20487;DHT22;10402;49.012;8.370;2023-02-01T15:56:37;8.80;83.60
20487;DHT22;10402;49.012;8.370;2023-02-01T15:59:06;8.80;83.20
20487;DHT22;10402;49.012;8.370;2023-02-01T16:01:38;8.70;83.10
20487;DHT22;10402;49.012;8.370;2023-02-01T16:04:16;8.70;83.30
20487;DHT22;10402;49.012;8.370;2023-02-01T16:06:50;8.70;83.10
20487;DHT22;10402;49.012;8.370;2023-02-01T16:09:18;8.70;83.10
20487;DHT22;10402;49.012;8.370;2023-02-01T16:11:57;8.70;83.20
20487;DHT22;10402;49.012;8.370;2023-02-01T16:14:23;8.70;83.20
20487;DHT22;10402;49.012;8.370;2023-02-01T16:16:49;8.60;83.10
20487;DHT22;10402;49.012;8.370;2023-02-01T16:19:15;8.60;83.10
20487;DHT22;10402;49.012;8.370;2023-02-01T16:21:41;8.60;83.10
20487;DHT22;10402;49.012;8.370;2023-02-01T16:24:07;8.60;82.90
20487;DHT22;10402;49.012;8.370;2023-02-01T16:26:33;8.60;83.10
20487;DHT22;10402;49.012;8.370;2023-02-01T16:28:59;8.60;83.10
20487;DHT22;10402;49.012;8.370;2023-02-01T16:31:29;8.50;83.00
20487;DHT22;10402;49.012;8.370;2023-02-01T16:33:56;8.60;83.20
20487;DHT22;10402;49.012;8.370;2023-02-01T16:36:22;8.60;83.10
20487;DHT22;10402;49.012;8.370;2023-02-01T16:38:47;8.50;82.90
20487;DHT22;10402;49.012;8.370;2023-02-01T16:41:16;8.60;83.00
20487;DHT22;10402;49.012;8.370;2023-02-01T16:43:42;8.50;82.70
20487;DHT22;10402;49.012;8.370;2023-02-01T16:46:14;8.60;82.60
20487;DHT22;10402;49.012;8.370;2023-02-01T16:48:42;8.50;82.30
20487;DHT22;10402;49.012;8.370;2023-02-01T16:51:13;8.50;82.30
20487;DHT22;10402;49.012;8.370;2023-02-01T16:53:39;8.50;82.10
20487;DHT22;10402;49.012;8.370;2023-02-01T16:56:17;8.50;82.20
20487;DHT22;10402;49.012;8.370;2023-02-01T16:58:43;8.50;82.00
20487;DHT22;10402;49.012;8.370;2023-02-01T17:01:13;8.50;82.10
20487;DHT22;10402;49.012;8.370;2023-02-01T17:03:39;8.50;82.20
20487;DHT22;10402;49.012;8.370;2023-02-01T17:06:05;8.50;82.00
20487;DHT22;10402;49.012;8.370;2023-02-01T17:08:35;8.50;82.00
20487;DHT22;10402;49.012;8.370;2023-02-01T17:11:02;8.50;82.00
20487;DHT22;10402;49.012;8.370;2023-02-01T17:13:28;8.50;82.00
20487;DHT22;10402;49.012;8.370;2023-02-01T17:16:00;8.50;82.00
20487;DHT22;10402;49.012;8.370;2023-02-01T17:18:31;8.60;82.10
20487;DHT22;10402;49.012;8.370;2023-02-01T17:20:58;8.60;82.00
20487;DHT22;10402;49.012;8.370;2023-02-01T17:23:25;8.60;82.00
20487;DHT22;10402;49.012;8.370;2023-02-01T17:25:51;8.50;81.80
20487;DHT22;10402;49.012;8.370;2023-02-01T17:28:17;8.50;81.80
20487;DHT22;10402;49.012;8.370;2023-02-01T17:30:42;8.50;81.90
20487;DHT22;10402;49.012;8.370;2023-02-01T17:33:24;8.50;81.90
20487;DHT22;10402;49.012;8.370;2023-02-01T17:35:50;8.50;82.00
20487;DHT22;10402;49.012;8.370;2023-02-01T17:38:17;8.50;82.00
20487;DHT22;10402;49.012;8.370;2023-02-01T17:40:43;8.50;81.90
20487;DHT22;10402;49.012;8.370;2023-02-01T17:43:19;8.50;81.70
20487;DHT22;10402;49.012;8.370;2023-02-01T17:48:16;8.50;81.60
20487;DHT22;10402;49.012;8.370;2023-02-01T17:50:42;8.50;81.50
20487;DHT22;10402;49.012;8.370;2023-02-01T17:53:09;8.50;81.70
20487;DHT22;10402;49.012;8.370;2023-02-01T17:55:39;8.50;81.60
20487;DHT22;10402;49.012;8.370;2023-02-01T17:58:05;8.50;81.30
20487;DHT22;10402;49.012;8.370;2023-02-01T18:00:31;8.50;81.50
20487;DHT22;10402;49.012;8.370;2023-02-01T18:02:57;8.50;81.60
20487;DHT22;10402;49.012;8.370;2023-02-01T18:05:36;8.50;81.60
20487;DHT22;10402;49.012;8.370;2023-02-01T18:08:02;8.50;81.40
20487;DHT22;10402;49.012;8.370;2023-02-01T18:10:28;8.50;81.40
20487;DHT22;10402;49.012;8.370;2023-02-01T18:12:54;8.50;81.40
20487;DHT22;10402;49.012;8.370;2023-02-01T18:15:22;8.50;81.30
20487;DHT22;10402;49.012;8.370;2023-02-01T18:17:48;8.50;81.30
20487;DHT22;10402;49.012;8.370;2023-02-01T18:20:18;8.50;81.40
20487;DHT22;10402;49.012;8.370;2023-02-01T18:22:45;8.50;81.40
20487;DHT22;10402;49.012;8.370;2023-02-01T18:25:16;8.50;81.30
20487;DHT22;10402;49.012;8.370;2023-02-01T18:27:43;8.50;81.40
20487;DHT22;10402;49.012;8.370;2023-02-01T18:30:09;8.50;81.40
20487;DHT22;10402;49.012;8.370;2023-02-01T18:32:35;8.50;81.30
20487;DHT22;10402;49.012;8.370;2023-02-01T18:35:01;8.50;81.50